sensor_id;sensor_type;location;lat;lon;timestamp;pressure;altitude;pressure_sealevel;temperature;humidity
69127;BME280;56688;50.234;19.292;2024-02-26T00:00:14;97577.81;;;1.02;79.02
69127;BME280;56688;50.234;19.292;2024-02-26T00:02:42;97575.17;;;0.99;79.13
69127;BME280;56688;50.234;19.292;2024-02-26T00:05:09;97575.16;;;0.97;79.12
69127;BME280;56688;50.234;19.292;2024-02-26T00:07:36;97573.50;;;0.94;79.01
69127;BME280;56688;50.234;19.292;2024-02-26T00:10:03;97577.87;;;0.91;78.97
69127;BME280;56688;50.234;19.292;2024-02-26T00:12:31;97576.36;;;0.87;79.15
69127;BME280;56688;50.234;19.292;2024-02-26T00:14:58;97571.27;;;0.83;78.78
69127;BME280;56688;50.234;19.292;2024-02-26T00:17:25;97573.43;;;0.77;78.66
69127;BME280;56688;50.234;19.292;2024-02-26T00:19:52;97571.05;;;0.76;79.03
69127;BME280;56688;50.234;19.292;2024-02-26T00:22:20;97567.52;;;0.77;79.34
69127;BME280;56688;50.234;19.292;2024-02-26T00:24:48;97563.30;;;0.79;79.61
69127;BME280;56688;50.234;19.292;2024-02-26T00:27:15;97563.96;;;0.79;79.40
69127;BME280;56688;50.234;19.292;2024-02-26T00:29:43;97563.39;;;0.78;79.42
69127;BME280;56688;50.234;19.292;2024-02-26T00:32:10;97561.63;;;0.74;79.02
69127;BME280;56688;50.234;19.292;2024-02-26T00:34:37;97563.00;;;0.69;78.67
69127;BME280;56688;50.234;19.292;2024-02-26T00:37:04;97562.70;;;0.62;78.55
69127;BME280;56688;50.234;19.292;2024-02-26T00:39:31;97564.65;;;0.56;78.41
69127;BME280;56688;50.234;19.292;2024-02-26T00:41:58;97562.89;;;0.52;78.66
69127;BME280;56688;50.234;19.292;2024-02-26T00:44:25;97563.95;;;0.50;78.74
69127;BME280;56688;50.234;19.292;2024-02-26T00:46:52;97567.94;;;0.47;78.34
69127;BME280;56688;50.234;19.292;2024-02-26T00:49:20;97566.87;;;0.44;78.20
69127;BME280;56688;50.234;19.292;2024-02-26T00:51:47;97570.59;;;0.40;78.32
69127;BME280;56688;50.234;19.292;2024-02-26T00:54:14;97568.98;;;0.35;78.20
69127;BME280;56688;50.234;19.292;2024-02-26T00:56:41;97563.95;;;0.31;78.69
69127;BME280;56688;50.234;19.292;2024-02-26T00:59:08;97566.19;;;0.27;79.05
69127;BME280;56688;50.234;19.292;2024-02-26T01:01:35;97566.71;;;0.23;79.45
69127;BME280;56688;50.234;19.292;2024-02-26T01:04:02;97571.06;;;0.24;79.60
69127;BME280;56688;50.234;19.292;2024-02-26T01:06:30;97569.50;;;0.23;80.03
69127;BME280;56688;50.234;19.292;2024-02-26T01:08:58;97568.30;;;0.27;80.28
69127;BME280;56688;50.234;19.292;2024-02-26T01:11:25;97571.42;;;0.33;80.71
69127;BME280;56688;50.234;19.292;2024-02-26T01:13:53;97571.41;;;0.38;80.79
69127;BME280;56688;50.234;19.292;2024-02-26T01:16:23;97567.07;;;0.43;80.92
69127;BME280;56688;50.234;19.292;2024-02-26T01:18:50;97568.60;;;0.48;80.68
69127;BME280;56688;50.234;19.292;2024-02-26T01:21:18;97567.83;;;0.50;80.44
69127;BME280;56688;50.234;19.292;2024-02-26T01:23:45;97567.89;;;0.49;80.22
69127;BME280;56688;50.234;19.292;2024-02-26T01:26:12;97568.69;;;0.47;80.03
69127;BME280;56688;50.234;19.292;2024-02-26T01:28:39;97565.37;;;0.45;79.88
69127;BME280;56688;50.234;19.292;2024-02-26T01:31:06;97561.89;;;0.44;80.00
69127;BME280;56688;50.234;19.292;2024-02-26T01:33:36;97564.64;;;0.45;80.04
69127;BME280;56688;50.234;19.292;2024-02-26T01:36:03;97561.15;;;0.43;79.84
69127;BME280;56688;50.234;19.292;2024-02-26T01:38:30;97561.55;;;0.43;80.11
69127;BME280;56688;50.234;19.292;2024-02-26T01:40:57;97563.34;;;0.42;79.82
69127;BME280;56688;50.234;19.292;2024-02-26T01:43:24;97561.17;;;0.41;79.93
69127;BME280;56688;50.234;19.292;2024-02-26T01:45:51;97562.39;;;0.41;80.26
69127;BME280;56688;50.234;19.292;2024-02-26T01:48:18;97560.60;;;0.40;79.98
69127;BME280;56688;50.234;19.292;2024-02-26T01:50:46;97555.63;;;0.37;79.85
69127;BME280;56688;50.234;19.292;2024-02-26T01:53:13;97556.83;;;0.35;80.24
69127;BME280;56688;50.234;19.292;2024-02-26T01:55:41;97558.99;;;0.35;80.18
69127;BME280;56688;50.234;19.292;2024-02-26T01:58:08;97560.46;;;0.34;80.28
69127;BME280;56688;50.234;19.292;2024-02-26T02:00:36;97557.73;;;0.33;80.14
69127;BME280;56688;50.234;19.292;2024-02-26T02:03:04;97562.42;;;0.34;80.33
69127;BME280;56688;50.234;19.292;2024-02-26T02:05:32;97565.80;;;0.37;80.66
69127;BME280;56688;50.234;19.292;2024-02-26T02:08:00;97566.45;;;0.41;80.79
69127;BME280;56688;50.234;19.292;2024-02-26T02:10:28;97564.56;;;0.42;80.79
69127;BME280;56688;50.234;19.292;2024-02-26T02:12:56;97569.39;;;0.43;80.53
69127;BME280;56688;50.234;19.292;2024-02-26T02:15:23;97566.41;;;0.39;80.30
69127;BME280;56688;50.234;19.292;2024-02-26T02:17:50;97570.85;;;0.35;80.19
69127;BME280;56688;50.234;19.292;2024-02-26T02:20:18;97572.23;;;0.32;79.77
69127;BME280;56688;50.234;19.292;2024-02-26T02:22:46;97571.55;;;0.30;79.66
69127;BME280;56688;50.234;19.292;2024-02-26T02:25:14;97569.13;;;0.29;79.72
69127;BME280;56688;50.234;19.292;2024-02-26T02:27:42;97571.47;;;0.31;80.03
69127;BME280;56688;50.234;19.292;2024-02-26T02:30:10;97571.52;;;0.30;79.92
69127;BME280;56688;50.234;19.292;2024-02-26T02:32:39;97570.99;;;0.28;79.27
69127;BME280;56688;50.234;19.292;2024-02-26T02:35:09;97575.05;;;0.26;79.29
69127;BME280;56688;50.234;19.292;2024-02-26T02:37:36;97572.42;;;0.20;79.02
69127;BME280;56688;50.234;19.292;2024-02-26T02:40:04;97567.95;;;0.14;78.86
69127;BME280;56688;50.234;19.292;2024-02-26T02:42:32;97567.24;;;0.05;78.78
69127;BME280;56688;50.234;19.292;2024-02-26T02:44:59;97562.52;;;-0.02;78.38
69127;BME280;56688;50.234;19.292;2024-02-26T02:47:26;97559.20;;;-0.06;78.47
69127;BME280;56688;50.234;19.292;2024-02-26T02:49:53;97562.23;;;-0.09;78.91
69127;BME280;56688;50.234;19.292;2024-02-26T02:52:20;97566.04;;;-0.12;78.45
69127;BME280;56688;50.234;19.292;2024-02-26T02:54:47;97563.88;;;-0.15;78.39
69127;BME280;56688;50.234;19.292;2024-02-26T02:57:14;97563.85;;;-0.18;78.34
69127;BME280;56688;50.234;19.292;2024-02-26T02:59:41;97565.97;;;-0.22;78.34
69127;BME280;56688;50.234;19.292;2024-02-26T03:02:08;97568.52;;;-0.27;78.51
69127;BME280;56688;50.234;19.292;2024-02-26T03:04:36;97562.85;;;-0.32;78.49
69127;BME280;56688;50.234;19.292;2024-02-26T03:07:03;97563.75;;;-0.36;78.44
69127;BME280;56688;50.234;19.292;2024-02-26T03:09:30;97559.55;;;-0.40;78.71
69127;BME280;56688;50.234;19.292;2024-02-26T03:11:57;97556.48;;;-0.41;79.42
69127;BME280;56688;50.234;19.292;2024-02-26T03:14:24;97554.25;;;-0.39;79.81
69127;BME280;56688;50.234;19.292;2024-02-26T03:16:54;97552.76;;;-0.36;80.44
69127;BME280;56688;50.234;19.292;2024-02-26T03:19:21;97550.55;;;-0.32;81.04
69127;BME280;56688;50.234;19.292;2024-02-26T03:21:49;97546.52;;;-0.24;81.45
69127;BME280;56688;50.234;19.292;2024-02-26T03:24:16;97543.38;;;-0.16;81.57
69127;BME280;56688;50.234;19.292;2024-02-26T03:26:43;97548.20;;;-0.09;82.14
69127;BME280;56688;50.234;19.292;2024-02-26T03:29:10;97549.17;;;-0.02;82.32
69127;BME280;56688;50.234;19.292;2024-02-26T03:31:37;97549.20;;;0.01;81.96
69127;BME280;56688;50.234;19.292;2024-02-26T03:34:04;97554.64;;;0.04;81.66
69127;BME280;56688;50.234;19.292;2024-02-26T03:36:31;97551.74;;;0.01;81.41
69127;BME280;56688;50.234;19.292;2024-02-26T03:38:58;97541.25;;;-0.02;81.38
69127;BME280;56688;50.234;19.292;2024-02-26T03:41:25;97537.55;;;0.01;81.34
69127;BME280;56688;50.234;19.292;2024-02-26T03:43:53;97536.71;;;0.03;81.00
69127;BME280;56688;50.234;19.292;2024-02-26T03:46:20;97532.33;;;0.03;80.59
69127;BME280;56688;50.234;19.292;2024-02-26T03:48:47;97530.73;;;-0.01;80.26
69127;BME280;56688;50.234;19.292;2024-02-26T03:51:14;97532.36;;;-0.06;80.18
69127;BME280;56688;50.234;19.292;2024-02-26T03:53:41;97530.44;;;-0.11;80.39
69127;BME280;56688;50.234;19.292;2024-02-26T03:56:11;97528.39;;;-0.15;80.77
69127;BME280;56688;50.234;19.292;2024-02-26T03:58:38;97526.66;;;-0.19;80.89
69127;BME280;56688;50.234;19.292;2024-02-26T04:01:08;97527.15;;;-0.22;80.59
69127;BME280;56688;50.234;19.292;2024-02-26T04:03:35;97525.70;;;-0.24;80.65
69127;BME280;56688;50.234;19.292;2024-02-26T04:06:02;97520.22;;;-0.23;80.85
69127;BME280;56688;50.234;19.292;2024-02-26T04:08:30;97517.14;;;-0.20;80.98
69127;BME280;56688;50.234;19.292;2024-02-26T04:10:59;97516.52;;;-0.19;80.69
69127;BME280;56688;50.234;19.292;2024-02-26T04:13:26;97518.92;;;-0.19;80.21
69127;BME280;56688;50.234;19.292;2024-02-26T04:15:53;97520.29;;;-0.20;80.28
69127;BME280;56688;50.234;19.292;2024-02-26T04:18:20;97517.30;;;-0.23;79.49
69127;BME280;56688;50.234;19.292;2024-02-26T04:20:47;97518.95;;;-0.30;79.38
69127;BME280;56688;50.234;19.292;2024-02-26T04:23:14;97519.64;;;-0.38;79.21
69127;BME280;56688;50.234;19.292;2024-02-26T04:25:41;97521.55;;;-0.45;79.15
69127;BME280;56688;50.234;19.292;2024-02-26T04:28:08;97522.67;;;-0.53;78.93
69127;BME280;56688;50.234;19.292;2024-02-26T04:30:35;97516.64;;;-0.62;78.91
69127;BME280;56688;50.234;19.292;2024-02-26T04:33:02;97513.21;;;-0.68;78.97
69127;BME280;56688;50.234;19.292;2024-02-26T04:35:30;97506.70;;;-0.71;79.37
69127;BME280;56688;50.234;19.292;2024-02-26T04:37:57;97507.05;;;-0.71;79.25
69127;BME280;56688;50.234;19.292;2024-02-26T04:40:24;97505.64;;;-0.73;79.31
69127;BME280;56688;50.234;19.292;2024-02-26T04:42:52;97502.15;;;-0.73;79.57
69127;BME280;56688;50.234;19.292;2024-02-26T04:45:19;97504.22;;;-0.73;79.62
69127;BME280;56688;50.234;19.292;2024-02-26T04:47:46;97498.98;;;-0.73;79.76
69127;BME280;56688;50.234;19.292;2024-02-26T04:50:13;97496.07;;;-0.75;80.04
69127;BME280;56688;50.234;19.292;2024-02-26T04:52:41;97497.55;;;-0.78;80.70
69127;BME280;56688;50.234;19.292;2024-02-26T04:55:08;97495.51;;;-0.81;81.22
69127;BME280;56688;50.234;19.292;2024-02-26T04:57:35;97501.60;;;-0.82;81.60
69127;BME280;56688;50.234;19.292;2024-02-26T05:00:03;97495.64;;;-0.82;81.97
69127;BME280;56688;50.234;19.292;2024-02-26T05:02:32;97489.16;;;-0.80;81.83
69127;BME280;56688;50.234;19.292;2024-02-26T05:05:00;97492.83;;;-0.76;81.88
69127;BME280;56688;50.234;19.292;2024-02-26T05:07:27;97493.51;;;-0.72;81.77
69127;BME280;56688;50.234;19.292;2024-02-26T05:09:54;97497.80;;;-0.70;81.47
69127;BME280;56688;50.234;19.292;2024-02-26T05:12:22;97498.29;;;-0.67;81.66
69127;BME280;56688;50.234;19.292;2024-02-26T05:14:49;97496.88;;;-0.67;81.47
69127;BME280;56688;50.234;19.292;2024-02-26T05:17:16;97496.67;;;-0.69;81.25
69127;BME280;56688;50.234;19.292;2024-02-26T05:19:43;97499.30;;;-0.71;81.12
69127;BME280;56688;50.234;19.292;2024-02-26T05:22:11;97498.11;;;-0.75;81.46
69127;BME280;56688;50.234;19.292;2024-02-26T05:24:38;97505.25;;;-0.78;81.46
69127;BME280;56688;50.234;19.292;2024-02-26T05:27:05;97507.85;;;-0.80;81.40
69127;BME280;56688;50.234;19.292;2024-02-26T05:29:32;97507.36;;;-0.80;81.05
69127;BME280;56688;50.234;19.292;2024-02-26T05:31:59;97507.58;;;-0.79;81.20
69127;BME280;56688;50.234;19.292;2024-02-26T05:34:26;97509.70;;;-0.75;81.08
69127;BME280;56688;50.234;19.292;2024-02-26T05:36:54;97505.16;;;-0.73;81.00
69127;BME280;56688;50.234;19.292;2024-02-26T05:39:20;97510.88;;;-0.73;80.95
69127;BME280;56688;50.234;19.292;2024-02-26T05:41:48;97508.29;;;-0.73;80.95
69127;BME280;56688;50.234;19.292;2024-02-26T05:44:17;97511.94;;;-0.75;81.07
69127;BME280;56688;50.234;19.292;2024-02-26T05:46:44;97511.63;;;-0.77;81.13
69127;BME280;56688;50.234;19.292;2024-02-26T05:49:11;97513.91;;;-0.77;81.32
69127;BME280;56688;50.234;19.292;2024-02-26T05:51:38;97515.31;;;-0.77;81.24
69127;BME280;56688;50.234;19.292;2024-02-26T05:54:05;97518.39;;;-0.77;80.76
69127;BME280;56688;50.234;19.292;2024-02-26T05:56:32;97520.51;;;-0.77;80.66
69127;BME280;56688;50.234;19.292;2024-02-26T05:58:59;97518.20;;;-0.75;80.46
69127;BME280;56688;50.234;19.292;2024-02-26T06:01:26;97524.79;;;-0.70;80.71
69127;BME280;56688;50.234;19.292;2024-02-26T06:03:53;97526.44;;;-0.67;80.28
69127;BME280;56688;50.234;19.292;2024-02-26T06:06:20;97531.62;;;-0.65;80.31
69127;BME280;56688;50.234;19.292;2024-02-26T06:08:50;97533.95;;;-0.62;80.60
69127;BME280;56688;50.234;19.292;2024-02-26T06:11:17;97530.48;;;-0.58;80.37
69127;BME280;56688;50.234;19.292;2024-02-26T06:13:45;97532.13;;;-0.53;80.67
69127;BME280;56688;50.234;19.292;2024-02-26T06:16:12;97532.88;;;-0.48;80.97
69127;BME280;56688;50.234;19.292;2024-02-26T06:18:39;97533.75;;;-0.39;80.77
69127;BME280;56688;50.234;19.292;2024-02-26T06:21:09;97534.04;;;-0.25;80.85
69127;BME280;56688;50.234;19.292;2024-02-26T06:23:38;97539.33;;;-0.09;80.64
69127;BME280;56688;50.234;19.292;2024-02-26T06:26:06;97545.00;;;0.14;81.14
69127;BME280;56688;50.234;19.292;2024-02-26T06:28:33;97543.37;;;0.46;81.67
69127;BME280;56688;50.234;19.292;2024-02-26T06:31:02;97542.98;;;0.86;81.41
69127;BME280;56688;50.234;19.292;2024-02-26T06:33:30;97543.44;;;1.25;81.29
69127;BME280;56688;50.234;19.292;2024-02-26T06:35:57;97543.48;;;1.72;81.15
69127;BME280;56688;50.234;19.292;2024-02-26T06:38:24;97545.52;;;2.17;80.69
69127;BME280;56688;50.234;19.292;2024-02-26T06:40:51;97546.77;;;2.66;79.86
69127;BME280;56688;50.234;19.292;2024-02-26T06:43:18;97545.55;;;3.22;78.76
69127;BME280;56688;50.234;19.292;2024-02-26T06:45:45;97536.13;;;3.81;77.40
69127;BME280;56688;50.234;19.292;2024-02-26T06:48:12;97538.18;;;4.40;75.51
69127;BME280;56688;50.234;19.292;2024-02-26T06:50:39;97534.20;;;4.94;74.88
69127;BME280;56688;50.234;19.292;2024-02-26T06:53:08;97536.34;;;5.55;73.14
69127;BME280;56688;50.234;19.292;2024-02-26T06:55:35;97531.79;;;6.16;70.91
69127;BME280;56688;50.234;19.292;2024-02-26T06:58:04;97536.14;;;6.62;69.09
69127;BME280;56688;50.234;19.292;2024-02-26T07:00:31;97533.92;;;7.07;68.60
69127;BME280;56688;50.234;19.292;2024-02-26T07:02:58;97533.59;;;7.57;66.01
69127;BME280;56688;50.234;19.292;2024-02-26T07:05:26;97537.73;;;7.95;64.85
69127;BME280;56688;50.234;19.292;2024-02-26T07:07:54;97533.63;;;8.38;63.43
69127;BME280;56688;50.234;19.292;2024-02-26T07:10:21;97536.67;;;8.85;62.07
69127;BME280;56688;50.234;19.292;2024-02-26T07:12:48;97535.65;;;9.26;60.87
69127;BME280;56688;50.234;19.292;2024-02-26T07:15:15;97533.11;;;9.68;60.18
69127;BME280;56688;50.234;19.292;2024-02-26T07:17:42;97534.29;;;10.11;59.56
69127;BME280;56688;50.234;19.292;2024-02-26T07:20:14;97542.89;;;10.49;59.33
69127;BME280;56688;50.234;19.292;2024-02-26T07:22:41;97545.74;;;10.81;58.44
69127;BME280;56688;50.234;19.292;2024-02-26T07:25:09;97541.87;;;11.27;57.30
69127;BME280;56688;50.234;19.292;2024-02-26T07:27:40;97540.45;;;11.80;56.22
69127;BME280;56688;50.234;19.292;2024-02-26T07:30:07;97529.42;;;12.16;54.72
69127;BME280;56688;50.234;19.292;2024-02-26T07:32:36;97529.16;;;12.29;54.16
69127;BME280;56688;50.234;19.292;2024-02-26T07:35:03;97529.10;;;12.33;54.19
69127;BME280;56688;50.234;19.292;2024-02-26T07:37:31;97531.72;;;12.36;54.13
69127;BME280;56688;50.234;19.292;2024-02-26T07:39:58;97532.89;;;12.48;53.81
69127;BME280;56688;50.234;19.292;2024-02-26T07:42:25;97533.88;;;12.55;53.00
69127;BME280;56688;50.234;19.292;2024-02-26T07:44:52;97531.70;;;12.53;52.87
69127;BME280;56688;50.234;19.292;2024-02-26T07:47:19;97530.98;;;12.55;52.97
69127;BME280;56688;50.234;19.292;2024-02-26T07:49:46;97531.17;;;12.57;53.08
69127;BME280;56688;50.234;19.292;2024-02-26T07:52:13;97529.98;;;12.63;53.09
69127;BME280;56688;50.234;19.292;2024-02-26T07:54:40;97532.02;;;12.66;52.88
69127;BME280;56688;50.234;19.292;2024-02-26T07:57:08;97532.66;;;12.63;52.62
69127;BME280;56688;50.234;19.292;2024-02-26T07:59:35;97528.34;;;12.73;53.00
69127;BME280;56688;50.234;19.292;2024-02-26T08:02:02;97522.36;;;12.95;52.85
69127;BME280;56688;50.234;19.292;2024-02-26T08:04:30;97528.82;;;13.24;51.98
69127;BME280;56688;50.234;19.292;2024-02-26T08:06:58;97520.14;;;13.60;51.62
69127;BME280;56688;50.234;19.292;2024-02-26T08:09:25;97512.81;;;14.20;50.31
69127;BME280;56688;50.234;19.292;2024-02-26T08:11:52;97511.91;;;14.74;48.26
69127;BME280;56688;50.234;19.292;2024-02-26T08:14:19;97514.04;;;15.15;47.28
69127;BME280;56688;50.234;19.292;2024-02-26T08:16:46;97521.51;;;15.17;46.30
69127;BME280;56688;50.234;19.292;2024-02-26T08:19:13;97519.44;;;15.16;46.64
69127;BME280;56688;50.234;19.292;2024-02-26T08:21:42;97520.30;;;15.31;47.04
69127;BME280;56688;50.234;19.292;2024-02-26T08:24:09;97522.14;;;15.53;46.91
69127;BME280;56688;50.234;19.292;2024-02-26T08:26:36;97516.48;;;15.71;46.30
69127;BME280;56688;50.234;19.292;2024-02-26T08:29:03;97518.64;;;15.89;46.10
69127;BME280;56688;50.234;19.292;2024-02-26T08:31:30;97516.50;;;16.07;46.08
69127;BME280;56688;50.234;19.292;2024-02-26T08:33:57;97515.51;;;16.25;45.23
69127;BME280;56688;50.234;19.292;2024-02-26T08:36:26;97517.41;;;16.41;45.28
69127;BME280;56688;50.234;19.292;2024-02-26T08:38:53;97519.22;;;16.69;44.69
69127;BME280;56688;50.234;19.292;2024-02-26T08:41:21;97516.63;;;17.12;44.29
69127;BME280;56688;50.234;19.292;2024-02-26T08:43:48;97511.77;;;17.55;43.67
69127;BME280;56688;50.234;19.292;2024-02-26T08:46:15;97511.61;;;17.79;42.70
69127;BME280;56688;50.234;19.292;2024-02-26T08:48:42;97509.90;;;17.88;42.30
69127;BME280;56688;50.234;19.292;2024-02-26T08:51:09;97510.42;;;17.93;42.71
69127;BME280;56688;50.234;19.292;2024-02-26T08:53:37;97511.91;;;18.06;42.20
69127;BME280;56688;50.234;19.292;2024-02-26T08:56:10;97515.87;;;18.16;42.39
69127;BME280;56688;50.234;19.292;2024-02-26T08:58:44;97514.77;;;18.19;42.18
69127;BME280;56688;50.234;19.292;2024-02-26T09:01:13;97514.60;;;18.20;41.88
69127;BME280;56688;50.234;19.292;2024-02-26T09:03:40;97512.50;;;18.22;42.13
69127;BME280;56688;50.234;19.292;2024-02-26T09:06:07;97504.55;;;18.31;42.24
69127;BME280;56688;50.234;19.292;2024-02-26T09:08:35;97503.43;;;18.45;42.16
69127;BME280;56688;50.234;19.292;2024-02-26T09:11:04;97503.88;;;18.58;42.14
69127;BME280;56688;50.234;19.292;2024-02-26T09:13:32;97501.84;;;18.83;41.79
69127;BME280;56688;50.234;19.292;2024-02-26T09:15:59;97505.83;;;18.98;41.95
69127;BME280;56688;50.234;19.292;2024-02-26T09:18:26;97507.55;;;19.07;41.16
69127;BME280;56688;50.234;19.292;2024-02-26T09:20:56;97506.95;;;19.13;41.16
69127;BME280;56688;50.234;19.292;2024-02-26T09:23:23;97502.33;;;19.31;40.46
69127;BME280;56688;50.234;19.292;2024-02-26T09:25:50;97499.85;;;19.45;39.46
69127;BME280;56688;50.234;19.292;2024-02-26T09:28:17;97501.22;;;19.54;39.45
69127;BME280;56688;50.234;19.292;2024-02-26T09:30:44;97501.85;;;19.58;38.97
69127;BME280;56688;50.234;19.292;2024-02-26T09:33:13;97498.33;;;19.61;38.97
69127;BME280;56688;50.234;19.292;2024-02-26T09:35:40;97500.05;;;19.61;38.67
69127;BME280;56688;50.234;19.292;2024-02-26T09:38:08;97503.33;;;19.44;38.53
69127;BME280;56688;50.234;19.292;2024-02-26T09:40:35;97504.64;;;19.20;38.58
69127;BME280;56688;50.234;19.292;2024-02-26T09:43:05;97504.61;;;19.03;39.65
69127;BME280;56688;50.234;19.292;2024-02-26T09:45:33;97504.56;;;18.87;38.88
69127;BME280;56688;50.234;19.292;2024-02-26T09:48:02;97505.52;;;18.62;39.51
69127;BME280;56688;50.234;19.292;2024-02-26T09:50:31;97504.98;;;18.44;39.99
69127;BME280;56688;50.234;19.292;2024-02-26T09:52:59;97507.29;;;18.27;40.71
69127;BME280;56688;50.234;19.292;2024-02-26T09:55:29;97506.98;;;18.10;41.48
69127;BME280;56688;50.234;19.292;2024-02-26T09:57:57;97505.96;;;18.03;41.73
69127;BME280;56688;50.234;19.292;2024-02-26T10:00:27;97510.15;;;18.00;41.42
69127;BME280;56688;50.234;19.292;2024-02-26T10:03:03;97506.85;;;17.85;41.78
69127;BME280;56688;50.234;19.292;2024-02-26T10:05:32;97512.46;;;17.66;41.87
69127;BME280;56688;50.234;19.292;2024-02-26T10:08:01;97517.77;;;17.50;42.86
69127;BME280;56688;50.234;19.292;2024-02-26T10:10:29;97514.90;;;17.48;42.78
69127;BME280;56688;50.234;19.292;2024-02-26T10:12:56;97506.58;;;17.72;42.94
69127;BME280;56688;50.234;19.292;2024-02-26T10:15:23;97500.14;;;18.26;42.18
69127;BME280;56688;50.234;19.292;2024-02-26T10:17:50;97490.65;;;18.75;42.04
69127;BME280;56688;50.234;19.292;2024-02-26T10:20:18;97496.48;;;19.00;40.28
69127;BME280;56688;50.234;19.292;2024-02-26T10:22:49;97496.78;;;18.94;40.74
69127;BME280;56688;50.234;19.292;2024-02-26T10:25:17;97500.41;;;18.93;41.48
69127;BME280;56688;50.234;19.292;2024-02-26T10:27:45;97497.23;;;18.99;41.43
69127;BME280;56688;50.234;19.292;2024-02-26T10:32:46;97485.27;;;19.34;41.74
69127;BME280;56688;50.234;19.292;2024-02-26T10:35:15;97485.63;;;19.65;41.17
69127;BME280;56688;50.234;19.292;2024-02-26T10:37:43;97481.02;;;19.80;40.15
69127;BME280;56688;50.234;19.292;2024-02-26T10:40:22;97482.70;;;19.88;39.45
69127;BME280;56688;50.234;19.292;2024-02-26T10:42:50;97483.31;;;19.76;39.19
69127;BME280;56688;50.234;19.292;2024-02-26T10:45:17;97488.78;;;19.61;39.26
69127;BME280;56688;50.234;19.292;2024-02-26T10:47:45;97489.93;;;19.37;39.83
69127;BME280;56688;50.234;19.292;2024-02-26T10:50:32;97488.34;;;19.15;39.82
69127;BME280;56688;50.234;19.292;2024-02-26T10:53:02;97487.05;;;18.85;39.91
69127;BME280;56688;50.234;19.292;2024-02-26T10:55:31;97483.13;;;18.69;40.83
69127;BME280;56688;50.234;19.292;2024-02-26T10:58:02;97482.22;;;18.53;41.15
69127;BME280;56688;50.234;19.292;2024-02-26T11:00:29;97486.15;;;18.39;41.23
69127;BME280;56688;50.234;19.292;2024-02-26T11:02:58;97482.77;;;18.20;41.77
69127;BME280;56688;50.234;19.292;2024-02-26T11:05:30;97489.11;;;17.97;41.86
69127;BME280;56688;50.234;19.292;2024-02-26T11:07:57;97486.92;;;17.73;42.53
69127;BME280;56688;50.234;19.292;2024-02-26T11:10:25;97486.67;;;17.50;43.17
69127;BME280;56688;50.234;19.292;2024-02-26T11:12:54;97487.27;;;17.26;43.54
69127;BME280;56688;50.234;19.292;2024-02-26T11:15:22;97482.56;;;17.05;44.39
69127;BME280;56688;50.234;19.292;2024-02-26T11:17:52;97478.45;;;16.93;44.98
69127;BME280;56688;50.234;19.292;2024-02-26T11:20:19;97478.05;;;16.84;45.76
69127;BME280;56688;50.234;19.292;2024-02-26T11:22:46;97478.75;;;16.71;45.47
69127;BME280;56688;50.234;19.292;2024-02-26T11:25:13;97480.20;;;16.55;45.72
69127;BME280;56688;50.234;19.292;2024-02-26T11:27:48;97481.80;;;16.41;46.08
69127;BME280;56688;50.234;19.292;2024-02-26T11:30:17;97479.23;;;16.26;46.37
69127;BME280;56688;50.234;19.292;2024-02-26T11:32:46;97472.55;;;16.12;46.88
69127;BME280;56688;50.234;19.292;2024-02-26T11:35:14;97476.76;;;16.05;47.53
69127;BME280;56688;50.234;19.292;2024-02-26T11:37:54;97476.61;;;15.99;47.16
69127;BME280;56688;50.234;19.292;2024-02-26T11:40:24;97478.98;;;15.93;46.85
69127;BME280;56688;50.234;19.292;2024-02-26T11:42:54;97476.74;;;15.90;47.23
69127;BME280;56688;50.234;19.292;2024-02-26T11:50:43;97474.89;;;15.99;46.69
69127;BME280;56688;50.234;19.292;2024-02-26T11:55:48;97464.84;;;16.05;47.48
69127;BME280;56688;50.234;19.292;2024-02-26T11:58:16;97463.63;;;16.11;47.14
69127;BME280;56688;50.234;19.292;2024-02-26T12:00:43;97464.29;;;16.16;46.89
69127;BME280;56688;50.234;19.292;2024-02-26T12:03:10;97458.60;;;16.18;46.84
69127;BME280;56688;50.234;19.292;2024-02-26T12:05:39;97461.20;;;16.15;46.79
69127;BME280;56688;50.234;19.292;2024-02-26T12:08:07;97463.85;;;16.16;46.85
69127;BME280;56688;50.234;19.292;2024-02-26T12:10:37;97465.27;;;16.20;47.11
69127;BME280;56688;50.234;19.292;2024-02-26T12:13:12;97467.80;;;16.29;47.00
69127;BME280;56688;50.234;19.292;2024-02-26T12:15:57;97461.19;;;16.34;46.77
69127;BME280;56688;50.234;19.292;2024-02-26T12:18:26;97460.10;;;16.38;46.96
69127;BME280;56688;50.234;19.292;2024-02-26T12:23:26;97458.70;;;16.38;47.06
69127;BME280;56688;50.234;19.292;2024-02-26T12:25:59;97458.98;;;16.38;46.59
69127;BME280;56688;50.234;19.292;2024-02-26T12:28:29;97449.11;;;16.34;46.74
69127;BME280;56688;50.234;19.292;2024-02-26T12:30:56;97451.41;;;16.41;47.05
69127;BME280;56688;50.234;19.292;2024-02-26T12:33:27;97450.94;;;16.60;46.57
69127;BME280;56688;50.234;19.292;2024-02-26T12:35:56;97453.83;;;16.74;46.24
69127;BME280;56688;50.234;19.292;2024-02-26T12:38:24;97459.83;;;16.76;45.51
69127;BME280;56688;50.234;19.292;2024-02-26T12:40:51;97459.52;;;16.73;45.68
69127;BME280;56688;50.234;19.292;2024-02-26T12:43:18;97459.27;;;16.71;45.89
69127;BME280;56688;50.234;19.292;2024-02-26T12:45:45;97459.96;;;16.66;45.84
69127;BME280;56688;50.234;19.292;2024-02-26T12:48:14;97462.02;;;16.63;46.41
69127;BME280;56688;50.234;19.292;2024-02-26T12:50:45;97465.81;;;16.64;46.36
69127;BME280;56688;50.234;19.292;2024-02-26T12:53:14;97463.52;;;16.63;46.47
69127;BME280;56688;50.234;19.292;2024-02-26T12:55:42;97462.36;;;16.60;46.78
69127;BME280;56688;50.234;19.292;2024-02-26T12:58:10;97464.86;;;16.57;46.66
69127;BME280;56688;50.234;19.292;2024-02-26T13:00:37;97463.03;;;16.53;47.18
69127;BME280;56688;50.234;19.292;2024-02-26T13:03:05;97463.33;;;16.51;47.54
69127;BME280;56688;50.234;19.292;2024-02-26T13:05:33;97467.11;;;16.47;47.44
69127;BME280;56688;50.234;19.292;2024-02-26T13:08:01;97464.89;;;16.46;48.02